createdAt,value
2022-11-26T00:01:46.530Z,101075.13
2022-11-26T00:04:15.507Z,101075.13
2022-11-26T00:06:45.617Z,101081.13
2022-11-26T00:09:19.307Z,101088.91
2022-11-26T00:11:49.307Z,101079.41
2022-11-26T00:14:18.871Z,101085.47
2022-11-26T00:16:47.484Z,101085.44
2022-11-26T00:19:16.363Z,101097.59
2022-11-26T00:21:45.136Z,101079.53
2022-11-26T00:24:28.364Z,101094.19
2022-11-26T00:27:00.875Z,101090.72
2022-11-26T00:29:29.745Z,101093.22
2022-11-26T00:31:58.361Z,101087.13
2022-11-26T00:34:27.204Z,101098.31
2022-11-26T00:36:55.924Z,101104.47
2022-11-26T00:39:25.877Z,101092.44
2022-11-26T00:41:54.991Z,101101.00
2022-11-26T00:44:26.644Z,101097.59
2022-11-26T00:46:55.199Z,101096.72
2022-11-26T00:49:24.201Z,101088.06
2022-11-26T00:51:52.889Z,101101.84
2022-11-26T00:54:23.943Z,101102.72
2022-11-26T00:56:52.857Z,101101.00
2022-11-26T00:59:24.419Z,101109.63
2022-11-26T01:01:53.050Z,101102.84
2022-11-26T01:04:21.937Z,101106.28
2022-11-26T01:06:50.660Z,101101.16
2022-11-26T01:09:22.425Z,101102.03
2022-11-26T01:11:54.247Z,101108.88
2022-11-26T01:14:25.269Z,101095.09
2022-11-26T01:16:58.281Z,101101.88
2022-11-26T01:19:27.192Z,101107.03
2022-11-26T01:21:55.769Z,101107.03
2022-11-26T01:24:24.582Z,101111.34
2022-11-26T01:26:53.127Z,101114.66
2022-11-26T01:29:22.347Z,101111.72
2022-11-26T01:31:52.359Z,101112.84
2022-11-26T01:34:21.225Z,101103.44
2022-11-26T01:36:49.772Z,101109.41
2022-11-26T01:39:21.649Z,101117.97
2022-11-26T01:41:58.570Z,101112.00
2022-11-26T01:44:30.850Z,101109.38
2022-11-26T01:47:02.052Z,101118.81
2022-11-26T01:49:34.051Z,101117.81
2022-11-26T01:52:08.202Z,101115.22
2022-11-26T01:54:41.195Z,101114.47
2022-11-26T01:57:15.896Z,101113.66
2022-11-26T01:59:51.353Z,101118.81
2022-11-26T02:02:25.780Z,101117.94
2022-11-26T02:05:05.955Z,101112.78
2022-11-26T02:07:35.232Z,101112.84
2022-11-26T02:10:04.906Z,101118.81
2022-11-26T02:12:34.232Z,101128.25
2022-11-26T02:15:03.373Z,101124.59
2022-11-26T02:17:42.914Z,101129.03
2022-11-26T02:20:47.413Z,101127.34
2022-11-26T02:23:58.014Z,101119.69
2022-11-26T02:27:30.939Z,101130.09
2022-11-26T02:30:09.070Z,101136.06
2022-11-26T02:32:57.547Z,101140.31
2022-11-26T02:35:34.050Z,101126.53
2022-11-26T02:38:07.904Z,101132.53
2022-11-26T02:40:36.498Z,101135.03
2022-11-26T02:43:05.570Z,101117.97
2022-11-26T02:45:41.888Z,101123.75
2022-11-26T02:48:21.176Z,101139.31
2022-11-26T02:50:55.075Z,101139.38
2022-11-26T02:53:27.919Z,101132.47
2022-11-26T02:56:04.616Z,101129.81
2022-11-26T02:58:35.765Z,101129.00
2022-11-26T03:01:20.542Z,101127.22
2022-11-26T03:03:54.999Z,101131.63
2022-11-26T03:06:23.968Z,101132.41
2022-11-26T03:08:54.769Z,101133.38
2022-11-26T03:11:23.431Z,101127.28
2022-11-26T03:13:52.338Z,101122.84
2022-11-26T03:16:22.639Z,101120.25
2022-11-26T03:18:51.541Z,101134.94
2022-11-26T03:21:20.142Z,101131.88
2022-11-26T03:23:49.172Z,101138.16
2022-11-26T03:26:17.869Z,101135.91
2022-11-26T03:28:46.765Z,101144.19
2022-11-26T03:31:15.668Z,101151.13
2022-11-26T03:33:45.923Z,101142.72
2022-11-26T03:36:14.541Z,101142.94
2022-11-26T03:38:43.385Z,101145.44
2022-11-26T03:41:11.977Z,101151.00
2022-11-26T03:43:40.841Z,101152.53
2022-11-26T03:46:09.563Z,101157.59
2022-11-26T03:48:38.460Z,101160.69
2022-11-26T03:51:08.861Z,101161.06
2022-11-26T03:53:37.739Z,101156.69
2022-11-26T03:56:07.108Z,101157.47
2022-11-26T03:58:36.932Z,101169.34
2022-11-26T04:01:10.001Z,101164.47
2022-11-26T04:03:39.330Z,101162.38
2022-11-26T04:06:09.559Z,101175.03
2022-11-26T04:08:38.481Z,101166.44
2022-11-26T04:11:07.411Z,101172.25
2022-11-26T04:13:36.547Z,101170.66
2022-11-26T04:16:05.501Z,101166.69
2022-11-26T04:18:34.446Z,101179.38
2022-11-26T04:21:03.361Z,101184.75
2022-11-26T04:23:33.570Z,101167.16
2022-11-26T04:26:02.275Z,101180.94
2022-11-26T04:28:31.247Z,101178.91
2022-11-26T04:30:59.986Z,101183.59
2022-11-26T04:33:28.956Z,101186.03
2022-11-26T04:35:57.573Z,101179.88
2022-11-26T04:38:26.446Z,101192.44
2022-11-26T04:40:56.511Z,101201.13
2022-11-26T04:43:25.423Z,101199.69
2022-11-26T04:45:54.117Z,101201.56
2022-11-26T04:48:22.996Z,101200.53
2022-11-26T04:50:51.645Z,101211.50
2022-11-26T04:53:22.054Z,101216.63
2022-11-26T04:55:52.031Z,101212.66
2022-11-26T04:58:22.777Z,101210.66
2022-11-26T05:00:51.810Z,101192.78
2022-11-26T05:03:21.008Z,101210.56
2022-11-26T05:05:49.674Z,101207.28
2022-11-26T05:08:18.593Z,101203.66
2022-11-26T05:10:47.154Z,101216.06
2022-11-26T05:13:16.012Z,101213.84
2022-11-26T05:15:45.886Z,101222.31
2022-11-26T05:18:14.728Z,101215.28
2022-11-26T05:20:43.395Z,101221.16
2022-11-26T05:23:12.326Z,101220.56
2022-11-26T05:25:40.962Z,101221.44
2022-11-26T05:28:09.863Z,101220.63
2022-11-26T05:30:39.136Z,101223.50
2022-11-26T05:33:09.344Z,101232.41
2022-11-26T05:35:39.451Z,101227.25
2022-11-26T05:38:08.368Z,101237.38
2022-11-26T05:40:36.936Z,101246.06
2022-11-26T05:43:05.782Z,101242.03
2022-11-26T05:45:34.419Z,101244.00
2022-11-26T05:48:03.313Z,101253.84
2022-11-26T05:50:34.073Z,101261.69
2022-11-26T05:53:03.054Z,101253.13
2022-11-26T05:55:32.234Z,101257.50
2022-11-26T05:58:01.191Z,101258.41
2022-11-26T06:00:29.784Z,101259.88
2022-11-26T06:02:58.801Z,101265.56
2022-11-26T06:05:27.493Z,101269.13
2022-11-26T06:07:57.855Z,101266.47
2022-11-26T06:10:26.518Z,101270.56
2022-11-26T06:12:55.505Z,101265.88
2022-11-26T06:15:24.125Z,101280.38
2022-11-26T06:17:52.979Z,101277.31
2022-11-26T06:20:21.760Z,101290.19
2022-11-26T06:22:50.612Z,101293.69
2022-11-26T06:25:20.702Z,101288.94
2022-11-26T06:27:49.599Z,101294.38
2022-11-26T06:30:18.209Z,101293.72
2022-11-26T06:32:47.184Z,101302.56
2022-11-26T06:35:16.006Z,101304.56
2022-11-26T06:37:45.141Z,101290.44
2022-11-26T06:40:21.217Z,101307.09
2022-11-26T06:42:51.002Z,101303.75
2022-11-26T06:45:20.606Z,101298.72
2022-11-26T06:47:51.911Z,101300.38
2022-11-26T06:50:23.632Z,101302.81
2022-11-26T06:52:53.949Z,101309.53
2022-11-26T06:55:24.334Z,101306.38
2022-11-26T06:57:53.734Z,101310.13
2022-11-26T07:00:23.037Z,101305.25
2022-11-26T07:02:52.059Z,101317.81
2022-11-26T07:05:20.677Z,101322.44
2022-11-26T07:07:49.629Z,101324.69
2022-11-26T07:10:18.501Z,101324.16
2022-11-26T07:12:48.700Z,101326.72
2022-11-26T07:15:17.512Z,101334.44
2022-11-26T07:17:46.378Z,101328.94
2022-11-26T07:20:15.944Z,101336.78
2022-11-26T07:22:45.005Z,101340.66
2022-11-26T07:25:13.670Z,101342.22
2022-11-26T07:27:42.565Z,101342.09
2022-11-26T07:30:14.610Z,101351.09
2022-11-26T07:32:44.545Z,101355.16
2022-11-26T07:35:18.141Z,101357.84
2022-11-26T07:37:47.035Z,101368.75
2022-11-26T07:40:15.884Z,101374.13
2022-11-26T07:42:48.088Z,101369.28
2022-11-26T07:45:21.791Z,101364.03
2022-11-26T07:47:50.784Z,101387.31
2022-11-26T07:50:19.695Z,101392.81
2022-11-26T07:52:48.529Z,101391.22
2022-11-26T07:55:17.220Z,101388.84
2022-11-26T07:57:46.073Z,101401.47
2022-11-26T08:00:16.256Z,101410.78
2022-11-26T08:02:46.554Z,101396.16
2022-11-26T08:05:15.544Z,101397.25
2022-11-26T08:07:44.404Z,101401.09
2022-11-26T08:10:14.011Z,101396.81
2022-11-26T08:12:42.954Z,101403.25
2022-11-26T08:15:12.454Z,101409.06
2022-11-26T08:17:41.331Z,101391.59
2022-11-26T08:20:12.883Z,101411.47
2022-11-26T08:22:42.567Z,101409.22
2022-11-26T08:25:11.448Z,101413.56
2022-11-26T08:27:40.499Z,101411.03
2022-11-26T08:30:11.383Z,101412.25
2022-11-26T08:32:40.245Z,101409.66
2022-11-26T08:35:12.185Z,101413.63
2022-11-26T08:37:42.645Z,101409.88
2022-11-26T08:40:14.039Z,101414.75
2022-11-26T08:42:43.133Z,101416.91
2022-11-26T08:45:12.609Z,101422.38
2022-11-26T08:47:41.530Z,101426.63
2022-11-26T08:50:12.830Z,101429.97
2022-11-26T08:52:41.822Z,101428.38
2022-11-26T08:55:10.967Z,101432.72
2022-11-26T08:57:39.792Z,101439.75
2022-11-26T09:00:11.614Z,101435.66
2022-11-26T09:02:40.610Z,101435.06
2022-11-26T09:05:11.098Z,101432.06
2022-11-26T09:07:40.904Z,101434.56
2022-11-26T09:10:13.078Z,101438.03
2022-11-26T09:12:42.533Z,101444.81
2022-11-26T09:15:12.000Z,101449.78
2022-11-26T09:17:41.074Z,101436.72
2022-11-26T09:20:12.621Z,101434.56
2022-11-26T09:22:41.826Z,101443.25
2022-11-26T09:25:11.268Z,101442.88
2022-11-26T09:27:40.245Z,101446.31
2022-11-26T09:30:10.524Z,101448.84
2022-11-26T09:32:39.622Z,101447.81
2022-11-26T09:35:09.311Z,101441.88
2022-11-26T09:37:39.520Z,101459.41
2022-11-26T09:40:18.231Z,101457.91
2022-11-26T09:42:59.318Z,101451.34
2022-11-26T09:45:43.237Z,101446.31
2022-11-26T09:48:19.253Z,101448.88
2022-11-26T09:50:52.618Z,101443.72
2022-11-26T09:53:28.501Z,101442.13
2022-11-26T09:55:58.305Z,101445.25
2022-11-26T09:58:35.455Z,101449.84
2022-11-26T10:01:08.506Z,101446.53
2022-11-26T10:03:39.295Z,101443.28
2022-11-26T10:06:17.483Z,101458.03
2022-11-26T10:09:19.135Z,101459.59
2022-11-26T10:12:00.730Z,101457.69
2022-11-26T10:14:47.215Z,101455.47
2022-11-26T10:17:35.445Z,101465.53
2022-11-26T10:20:35.048Z,101463.97
2022-11-26T10:23:15.547Z,101465.41
2022-11-26T10:25:51.287Z,101474.22
2022-11-26T10:28:27.497Z,101470.25
2022-11-26T10:31:00.955Z,101479.78
2022-11-26T10:33:35.363Z,101466.94
2022-11-26T10:36:10.174Z,101475.88
2022-11-26T10:38:38.791Z,101481.41
2022-11-26T10:41:08.971Z,101474.75
2022-11-26T10:43:37.572Z,101475.72
2022-11-26T10:46:06.812Z,101473.34
2022-11-26T10:48:36.420Z,101466.19
2022-11-26T10:51:13.656Z,101479.97
2022-11-26T10:53:55.976Z,101481.81
2022-11-26T10:56:37.747Z,101482.44
2022-11-26T10:59:21.518Z,101474.91
2022-11-26T11:01:51.621Z,101476.44
2022-11-26T11:04:31.920Z,101470.75
2022-11-26T11:07:00.924Z,101482.59
2022-11-26T11:09:33.853Z,101488.00
2022-11-26T11:12:22.520Z,101489.47
2022-11-26T11:14:52.762Z,101488.09
2022-11-26T11:17:38.045Z,101489.50
2022-11-26T11:20:29.959Z,101490.09
2022-11-26T11:23:04.388Z,101485.63
2022-11-26T11:25:36.001Z,101486.63
2022-11-26T11:28:16.891Z,101502.94
2022-11-26T11:30:46.989Z,101505.97
2022-11-26T11:33:24.105Z,101500.25
2022-11-26T11:36:17.843Z,101501.41
2022-11-26T11:38:51.225Z,101501.75
2022-11-26T11:41:30.175Z,101507.28
2022-11-26T11:44:13.295Z,101505.91
2022-11-26T11:47:20.638Z,101514.50
2022-11-26T11:50:14.955Z,101511.38
2022-11-26T11:53:00.729Z,101516.59
2022-11-26T11:55:52.250Z,101517.72
2022-11-26T11:58:55.303Z,101519.59
2022-11-26T12:01:47.500Z,101517.47
2022-11-26T12:04:40.137Z,101529.88
2022-11-26T12:07:38.633Z,101525.97
2022-11-26T12:10:17.552Z,101520.41
2022-11-26T12:12:52.442Z,101517.69
2022-11-26T12:15:29.567Z,101528.47
2022-11-26T12:18:09.868Z,101526.94
2022-11-26T12:20:46.108Z,101523.84
2022-11-26T12:23:30.466Z,101536.03
2022-11-26T12:26:08.497Z,101524.50
2022-11-26T12:28:51.121Z,101529.63
2022-11-26T12:31:32.494Z,101526.53
2022-11-26T12:34:12.967Z,101529.47
2022-11-26T12:36:51.107Z,101520.19
2022-11-26T12:39:36.575Z,101534.72
2022-11-26T12:42:16.388Z,101535.69
2022-11-26T12:44:51.781Z,101533.56
2022-11-26T12:47:27.770Z,101536.63
2022-11-26T12:50:12.909Z,101538.47
2022-11-26T12:52:51.536Z,101541.59
2022-11-26T12:55:27.750Z,101543.16
2022-11-26T12:58:04.280Z,101535.28
2022-11-26T13:00:36.700Z,101535.44
2022-11-26T13:03:08.095Z,101540.34
2022-11-26T13:05:56.552Z,101537.72
2022-11-26T13:08:42.374Z,101546.06
2022-11-26T13:11:37.762Z,101553.16
2022-11-26T13:14:18.512Z,101556.47
2022-11-26T13:16:56.550Z,101553.16
2022-11-26T13:19:34.177Z,101559.03
2022-11-26T13:22:44.961Z,101565.25
2022-11-26T13:25:57.749Z,101561.78
2022-11-26T13:28:49.922Z,101558.88
2022-11-26T13:31:46.399Z,101555.84
2022-11-26T13:34:41.680Z,101567.97
2022-11-26T13:37:41.569Z,101571.56
2022-11-26T13:40:44.920Z,101569.47
2022-11-26T13:43:35.881Z,101567.41
2022-11-26T13:46:21.610Z,101575.59
2022-11-26T13:49:03.061Z,101574.31
2022-11-26T13:51:39.785Z,101575.44
2022-11-26T13:54:17.306Z,101585.72
2022-11-26T13:56:48.220Z,101583.97
2022-11-26T13:59:26.832Z,101598.13
2022-11-26T14:01:57.900Z,101601.28
2022-11-26T14:04:54.280Z,101601.75
2022-11-26T14:07:23.188Z,101600.63
2022-11-26T14:09:56.723Z,101606.84
2022-11-26T14:13:04.882Z,101606.06
2022-11-26T14:15:57.195Z,101601.69
2022-11-26T14:19:01.561Z,101605.47
2022-11-26T14:21:31.766Z,101606.63
2022-11-26T14:24:03.329Z,101602.25
2022-11-26T14:26:37.759Z,101607.00
2022-11-26T14:29:17.629Z,101605.03
2022-11-26T14:31:53.346Z,101610.31
2022-11-26T14:34:32.611Z,101608.81
2022-11-26T14:37:03.049Z,101611.09
2022-11-26T14:39:32.780Z,101616.03
2022-11-26T14:42:06.423Z,101620.22
2022-11-26T14:44:35.671Z,101611.06
2022-11-26T14:47:17.134Z,101621.63
2022-11-26T14:49:55.104Z,101617.50
2022-11-26T14:52:35.228Z,101631.03
2022-11-26T14:55:09.638Z,101627.50
2022-11-26T14:57:47.576Z,101630.47
2022-11-26T15:00:26.104Z,101628.59
2022-11-26T15:02:56.460Z,101625.63
2022-11-26T15:05:29.227Z,101618.00
2022-11-26T15:08:04.176Z,101623.41
2022-11-26T15:10:37.150Z,101623.41
2022-11-26T15:13:15.502Z,101631.47
2022-11-26T15:15:53.453Z,101631.16
2022-11-26T15:18:28.657Z,101626.25
2022-11-26T15:20:59.691Z,101634.75
2022-11-26T15:23:32.423Z,101641.59
2022-11-26T15:26:01.560Z,101640.13
2022-11-26T15:28:41.104Z,101646.31
2022-11-26T15:31:10.535Z,101639.19
2022-11-26T15:33:40.926Z,101641.84
2022-11-26T15:36:17.140Z,101643.16
2022-11-26T15:39:06.459Z,101647.50
2022-11-26T15:41:42.735Z,101650.78
2022-11-26T15:44:23.450Z,101652.34
2022-11-26T15:46:56.586Z,101645.25
2022-11-26T15:49:32.685Z,101642.78
2022-11-26T15:52:05.189Z,101648.72
2022-11-26T15:55:04.656Z,101658.56
2022-11-26T15:57:30.878Z,101654.97
2022-11-26T16:00:07.003Z,101659.19
2022-11-26T16:02:39.597Z,101659.38
2022-11-26T16:05:28.783Z,101654.84
2022-11-26T16:08:01.214Z,101663.28
2022-11-26T16:10:35.399Z,101663.34
2022-11-26T16:13:23.153Z,101664.19
2022-11-26T16:16:02.577Z,101662.63
2022-11-26T16:18:39.549Z,101668.69
2022-11-26T16:21:17.625Z,101662.44
2022-11-26T16:23:54.530Z,101666.38
2022-11-26T16:26:23.661Z,101672.97
2022-11-26T16:28:52.555Z,101663.53
2022-11-26T16:31:23.138Z,101668.00
2022-11-26T16:33:52.018Z,101666.41
2022-11-26T16:36:24.596Z,101673.06
2022-11-26T16:38:54.268Z,101670.00
2022-11-26T16:41:24.125Z,101673.75
2022-11-26T16:43:53.086Z,101678.41
2022-11-26T16:46:26.012Z,101671.16
2022-11-26T16:48:55.264Z,101675.59
2022-11-26T16:51:24.351Z,101684.47
2022-11-26T16:53:53.223Z,101694.69
2022-11-26T16:56:27.474Z,101696.91
2022-11-26T16:59:02.568Z,101693.88
2022-11-26T17:01:33.259Z,101683.69
2022-11-26T17:04:02.137Z,101687.81
2022-11-26T17:06:34.884Z,101692.91
2022-11-26T17:09:03.979Z,101695.63
2022-11-26T17:11:32.654Z,101688.50
2022-11-26T17:14:01.582Z,101703.50
2022-11-26T17:16:30.256Z,101691.72
2022-11-26T17:19:00.497Z,101690.56
2022-11-26T17:21:29.111Z,101706.41
2022-11-26T17:23:58.070Z,101704.00
2022-11-26T17:26:27.175Z,101713.38
2022-11-26T17:28:56.031Z,101721.00
2022-11-26T17:31:24.677Z,101719.31
2022-11-26T17:33:53.539Z,101724.41
2022-11-26T17:36:24.885Z,101724.94
2022-11-26T17:38:53.829Z,101734.44
2022-11-26T17:41:22.464Z,101725.06
2022-11-26T17:43:51.295Z,101729.50
2022-11-26T17:46:23.013Z,101730.16
2022-11-26T17:48:57.011Z,101728.19
2022-11-26T17:51:47.976Z,101729.47
2022-11-26T17:54:16.880Z,101732.53
2022-11-26T17:56:45.457Z,101733.81
2022-11-26T17:59:18.219Z,101732.09
2022-11-26T18:01:49.086Z,101737.03
2022-11-26T18:04:18.954Z,101734.31
2022-11-26T18:07:00.113Z,101745.66
2022-11-26T18:09:28.976Z,101741.56
2022-11-26T18:11:58.352Z,101731.66
2022-11-26T18:14:28.624Z,101732.25
2022-11-26T18:16:57.341Z,101735.25
2022-11-26T18:19:26.339Z,101734.47
2022-11-26T18:21:56.273Z,101739.63
2022-11-26T18:24:25.307Z,101737.16
2022-11-26T18:26:56.351Z,101738.84
2022-11-26T18:29:25.807Z,101739.56
2022-11-26T18:31:54.945Z,101738.09
2022-11-26T18:34:24.087Z,101749.88
2022-11-26T18:36:54.035Z,101754.84
2022-11-26T18:39:24.611Z,101751.13
2022-11-26T18:42:00.737Z,101755.03
2022-11-26T18:44:42.026Z,101752.03
2022-11-26T18:47:10.684Z,101760.44
2022-11-26T18:49:43.315Z,101759.97
2022-11-26T18:52:14.607Z,101757.22
2022-11-26T18:54:44.815Z,101761.09
2022-11-26T18:57:13.510Z,101760.84
2022-11-26T18:59:42.649Z,101755.91
2022-11-26T19:02:11.956Z,101749.28
2022-11-26T19:04:41.246Z,101756.81
2022-11-26T19:07:10.915Z,101752.09
2022-11-26T19:09:40.243Z,101768.53
2022-11-26T19:12:11.058Z,101760.53
2022-11-26T19:14:40.411Z,101771.03
2022-11-26T19:17:09.032Z,101768.53
2022-11-26T19:19:39.919Z,101772.88
2022-11-26T19:22:08.790Z,101766.84
2022-11-26T19:24:37.838Z,101776.16
2022-11-26T19:27:06.557Z,101775.03
2022-11-26T19:29:36.828Z,101776.50
2022-11-26T19:32:05.850Z,101784.47
2022-11-26T19:34:34.723Z,101787.13
2022-11-26T19:37:03.390Z,101793.75
2022-11-26T19:39:33.379Z,101788.06
2022-11-26T19:42:01.992Z,101797.72
2022-11-26T19:44:30.869Z,101799.34
2022-11-26T19:47:00.894Z,101793.91
2022-11-26T19:49:30.280Z,101801.44
2022-11-26T19:51:58.954Z,101797.09
2022-11-26T19:54:28.079Z,101792.06
2022-11-26T19:56:56.671Z,101798.06
2022-11-26T19:59:25.640Z,101794.06
2022-11-26T20:01:55.923Z,101796.03
2022-11-26T20:04:27.623Z,101795.22
2022-11-26T20:06:56.714Z,101798.22
2022-11-26T20:09:25.658Z,101808.31
2022-11-26T20:11:54.280Z,101801.44
2022-11-26T20:14:23.167Z,101804.22
2022-11-26T20:16:54.076Z,101805.22
2022-11-26T20:19:28.032Z,101808.44
2022-11-26T20:21:56.661Z,101813.88
2022-11-26T20:24:25.610Z,101814.50
2022-11-26T20:26:54.479Z,101812.81
2022-11-26T20:29:23.913Z,101815.13
2022-11-26T20:31:54.304Z,101811.72
2022-11-26T20:34:26.217Z,101806.59
2022-11-26T20:36:56.261Z,101816.25
2022-11-26T20:39:25.422Z,101805.06
2022-11-26T20:41:54.078Z,101813.78
2022-11-26T20:44:24.695Z,101811.34
2022-11-26T20:46:53.425Z,101818.47
2022-11-26T20:49:23.384Z,101814.91
2022-11-26T20:51:52.133Z,101818.50
2022-11-26T20:54:22.307Z,101815.84
2022-11-26T20:56:50.886Z,101815.13
2022-11-26T20:59:19.749Z,101817.22
2022-11-26T21:01:48.393Z,101806.69
2022-11-26T21:04:17.262Z,101799.06
2022-11-26T21:06:46.034Z,101813.44
2022-11-26T21:09:15.664Z,101795.50
2022-11-26T21:11:45.623Z,101810.66
2022-11-26T21:14:15.328Z,101795.09
2022-11-26T21:16:44.417Z,101807.22
2022-11-26T21:19:14.550Z,101812.72
2022-11-26T21:21:43.408Z,101813.19
2022-11-26T21:24:12.365Z,101807.63
2022-11-26T21:26:41.268Z,101810.94
2022-11-26T21:29:11.484Z,101816.91
2022-11-26T21:31:40.269Z,101821.44
2022-11-26T21:34:15.721Z,101803.16
2022-11-26T21:36:44.378Z,101819.69
2022-11-26T21:39:17.208Z,101824.97
2022-11-26T21:41:46.049Z,101820.13
2022-11-26T21:44:16.874Z,101831.38
2022-11-26T21:46:45.491Z,101825.69
2022-11-26T21:49:14.352Z,101827.47
2022-11-26T21:51:43.053Z,101823.69
2022-11-26T21:54:12.236Z,101836.94
2022-11-26T21:56:40.928Z,101829.06
2022-11-26T21:59:11.554Z,101830.84
2022-11-26T22:01:42.018Z,101835.41
2022-11-26T22:04:15.691Z,101830.66
2022-11-26T22:06:46.370Z,101826.25
2022-11-26T22:09:17.499Z,101832.91
2022-11-26T22:11:47.120Z,101847.50
2022-11-26T22:14:18.038Z,101840.63
2022-11-26T22:16:52.071Z,101854.06
2022-11-26T22:19:21.055Z,101844.69
2022-11-26T22:21:49.746Z,101859.63
2022-11-26T22:24:21.339Z,101849.13
2022-11-26T22:26:49.936Z,101854.69
2022-11-26T22:29:20.931Z,101856.69
2022-11-26T22:31:51.370Z,101856.09
2022-11-26T22:34:22.159Z,101859.22
2022-11-26T22:36:50.989Z,101862.78
2022-11-26T22:39:20.648Z,101863.59
2022-11-26T22:41:50.120Z,101862.97
2022-11-26T22:44:19.324Z,101866.38
2022-11-26T22:46:47.905Z,101860.84
2022-11-26T22:49:19.702Z,101870.63
2022-11-26T22:51:48.356Z,101871.69
2022-11-26T22:54:18.169Z,101865.94
2022-11-26T22:56:46.923Z,101864.63
2022-11-26T22:59:16.111Z,101864.00
2022-11-26T23:01:44.821Z,101862.06
2022-11-26T23:04:13.747Z,101867.38
2022-11-26T23:06:43.833Z,101856.81
2022-11-26T23:09:14.412Z,101863.06
2022-11-26T23:11:44.298Z,101856.91
2022-11-26T23:14:13.760Z,101853.28
2022-11-26T23:16:44.149Z,101857.50
2022-11-26T23:19:16.186Z,101859.44
2022-11-26T23:21:46.979Z,101862.06
2022-11-26T23:24:17.614Z,101861.44
2022-11-26T23:26:47.102Z,101856.91
2022-11-26T23:29:15.987Z,101859.09
2022-11-26T23:31:45.909Z,101856.84
2022-11-26T23:34:15.884Z,101853.50
2022-11-26T23:36:45.821Z,101859.56
2022-11-26T23:39:14.966Z,101846.59
2022-11-26T23:41:44.694Z,101855.53
2022-11-26T23:44:13.676Z,101861.97
2022-11-26T23:46:42.282Z,101858.84
2022-11-26T23:49:11.804Z,101848.72
2022-11-26T23:51:40.365Z,101861.38
2022-11-26T23:54:10.539Z,101853.69
2022-11-26T23:56:39.195Z,101850.38
2022-11-26T23:59:08.045Z,101851.72
